Sherwood, North Dakota
Current Conditions -  °F | °C
As of 7:58 PM on Friday 19 Dec 2014 (Local Time) from KMIB Reporting Station
Haze Haze  
Wind Chill: 18°   Ceiling: 200
Heat Index: 25°   Visibility: 4mi
Dew Point: 25°   Wind: 6mph
Humidity: 100%   Direction: 190°S
Pressure: 29.94"   Gusts: NA
Location:  48.96°N, 101.63°W
Report Text: KMIB 200158Z AUTO 19005KT 4SM R29/4000FT BR OVC002 M04/M04 A2994 RMK AO2 VIS 1 1/2 RWY11 SLP168 $
Loading
Personal Weather Stations






























Interactive Weather Map New forecast layout! Learn more

10-Day Weather Forecast

Advertisements
Track Severe Weather on mobile